sensor_id;sensor_type;location;lat;lon;timestamp;temperature;humidity
1429;DHT22;708;51.442;7.016;2024-02-21T00:01:24;11.40;99.90
1429;DHT22;708;51.442;7.016;2024-02-21T00:03:51;11.40;99.90
1429;DHT22;708;51.442;7.016;2024-02-21T00:06:17;11.40;99.90
1429;DHT22;708;51.442;7.016;2024-02-21T00:08:44;11.40;99.90
1429;DHT22;708;51.442;7.016;2024-02-21T00:11:11;11.30;99.90
1429;DHT22;708;51.442;7.016;2024-02-21T00:13:38;11.30;99.90
1429;DHT22;708;51.442;7.016;2024-02-21T00:16:05;11.30;99.90
1429;DHT22;708;51.442;7.016;2024-02-21T00:18:33;11.30;99.90
1429;DHT22;708;51.442;7.016;2024-02-21T00:20:59;11.40;99.90
1429;DHT22;708;51.442;7.016;2024-02-21T00:23:27;11.40;99.90
1429;DHT22;708;51.442;7.016;2024-02-21T00:25:54;11.40;99.90
1429;DHT22;708;51.442;7.016;2024-02-21T00:28:20;11.40;99.90
1429;DHT22;708;51.442;7.016;2024-02-21T00:30:47;11.30;99.90
1429;DHT22;708;51.442;7.016;2024-02-21T00:33:16;11.30;99.90
1429;DHT22;708;51.442;7.016;2024-02-21T00:35:44;11.40;99.90
1429;DHT22;708;51.442;7.016;2024-02-21T00:38:11;11.30;99.90
1429;DHT22;708;51.442;7.016;2024-02-21T00:40:37;11.40;99.90
1429;DHT22;708;51.442;7.016;2024-02-21T00:43:04;11.30;99.90
1429;DHT22;708;51.442;7.016;2024-02-21T00:45:31;11.40;99.90
1429;DHT22;708;51.442;7.016;2024-02-21T00:47:58;11.40;99.90
1429;DHT22;708;51.442;7.016;2024-02-21T00:50:25;11.30;99.90
1429;DHT22;708;51.442;7.016;2024-02-21T00:52:53;11.40;99.90
1429;DHT22;708;51.442;7.016;2024-02-21T00:55:20;11.40;99.90
1429;DHT22;708;51.442;7.016;2024-02-21T00:57:46;11.40;99.90
1429;DHT22;708;51.442;7.016;2024-02-21T01:00:14;11.40;99.90
1429;DHT22;708;51.442;7.016;2024-02-21T01:02:40;11.40;99.90
1429;DHT22;708;51.442;7.016;2024-02-21T01:05:07;11.40;99.90
1429;DHT22;708;51.442;7.016;2024-02-21T01:07:34;11.40;99.90
1429;DHT22;708;51.442;7.016;2024-02-21T01:10:03;11.40;99.90
1429;DHT22;708;51.442;7.016;2024-02-21T01:12:29;11.40;99.90
1429;DHT22;708;51.442;7.016;2024-02-21T01:14:56;11.40;99.90
1429;DHT22;708;51.442;7.016;2024-02-21T01:17:23;11.40;99.90
1429;DHT22;708;51.442;7.016;2024-02-21T01:19:50;11.40;99.90
1429;DHT22;708;51.442;7.016;2024-02-21T01:22:16;11.40;99.90
1429;DHT22;708;51.442;7.016;2024-02-21T01:24:43;11.40;99.90
1429;DHT22;708;51.442;7.016;2024-02-21T01:27:11;11.40;99.90
1429;DHT22;708;51.442;7.016;2024-02-21T01:29:38;11.40;99.90
1429;DHT22;708;51.442;7.016;2024-02-21T01:32:05;11.30;99.90
1429;DHT22;708;51.442;7.016;2024-02-21T01:34:32;11.30;99.90
1429;DHT22;708;51.442;7.016;2024-02-21T01:36:59;11.20;99.90
1429;DHT22;708;51.442;7.016;2024-02-21T01:39:29;11.10;99.90
1429;DHT22;708;51.442;7.016;2024-02-21T01:41:56;11.10;99.90
1429;DHT22;708;51.442;7.016;2024-02-21T01:44:25;11.10;99.90
1429;DHT22;708;51.442;7.016;2024-02-21T01:46:53;11.10;99.90
1429;DHT22;708;51.442;7.016;2024-02-21T01:49:20;11.10;99.90
1429;DHT22;708;51.442;7.016;2024-02-21T01:51:48;11.10;99.90
1429;DHT22;708;51.442;7.016;2024-02-21T01:54:16;11.10;99.90
1429;DHT22;708;51.442;7.016;2024-02-21T01:56:44;11.10;99.90
1429;DHT22;708;51.442;7.016;2024-02-21T01:59:15;11.20;99.90
1429;DHT22;708;51.442;7.016;2024-02-21T02:01:44;11.20;99.90
1429;DHT22;708;51.442;7.016;2024-02-21T02:04:13;11.20;99.90
1429;DHT22;708;51.442;7.016;2024-02-21T02:06:39;11.20;99.90
1429;DHT22;708;51.442;7.016;2024-02-21T02:09:07;11.10;99.90
1429;DHT22;708;51.442;7.016;2024-02-21T02:11:34;11.10;99.90
1429;DHT22;708;51.442;7.016;2024-02-21T02:14:00;11.10;99.90
1429;DHT22;708;51.442;7.016;2024-02-21T02:16:27;11.00;99.90
1429;DHT22;708;51.442;7.016;2024-02-21T02:18:55;11.10;99.90
1429;DHT22;708;51.442;7.016;2024-02-21T02:21:28;11.00;99.90
1429;DHT22;708;51.442;7.016;2024-02-21T02:23:57;11.00;99.90
1429;DHT22;708;51.442;7.016;2024-02-21T02:26:24;10.90;99.90
1429;DHT22;708;51.442;7.016;2024-02-21T02:28:50;10.90;99.90
1429;DHT22;708;51.442;7.016;2024-02-21T02:31:17;10.90;99.90
1429;DHT22;708;51.442;7.016;2024-02-21T02:33:43;10.90;99.90
1429;DHT22;708;51.442;7.016;2024-02-21T02:36:10;10.80;99.90
1429;DHT22;708;51.442;7.016;2024-02-21T02:38:37;10.80;99.90
1429;DHT22;708;51.442;7.016;2024-02-21T02:41:05;10.80;99.90
1429;DHT22;708;51.442;7.016;2024-02-21T02:43:32;10.80;99.90
1429;DHT22;708;51.442;7.016;2024-02-21T02:45:58;10.80;99.90
1429;DHT22;708;51.442;7.016;2024-02-21T02:48:25;10.70;99.90
1429;DHT22;708;51.442;7.016;2024-02-21T02:50:52;10.60;99.90
1429;DHT22;708;51.442;7.016;2024-02-21T02:53:19;10.60;99.90
1429;DHT22;708;51.442;7.016;2024-02-21T02:55:45;10.50;99.90
1429;DHT22;708;51.442;7.016;2024-02-21T02:58:13;10.50;99.90
1429;DHT22;708;51.442;7.016;2024-02-21T03:00:40;10.40;99.90
1429;DHT22;708;51.442;7.016;2024-02-21T03:03:07;10.40;99.90
1429;DHT22;708;51.442;7.016;2024-02-21T03:05:34;10.40;99.90
1429;DHT22;708;51.442;7.016;2024-02-21T03:08:01;10.40;99.90
1429;DHT22;708;51.442;7.016;2024-02-21T03:10:32;10.40;99.90
1429;DHT22;708;51.442;7.016;2024-02-21T03:12:59;10.50;99.90
1429;DHT22;708;51.442;7.016;2024-02-21T03:15:27;10.50;99.90
1429;DHT22;708;51.442;7.016;2024-02-21T03:17:54;10.60;99.90
1429;DHT22;708;51.442;7.016;2024-02-21T03:20:20;10.60;99.90
1429;DHT22;708;51.442;7.016;2024-02-21T03:22:47;10.70;99.90
1429;DHT22;708;51.442;7.016;2024-02-21T03:25:14;10.70;99.90
1429;DHT22;708;51.442;7.016;2024-02-21T03:27:41;10.80;99.90
1429;DHT22;708;51.442;7.016;2024-02-21T03:30:09;10.80;99.90
1429;DHT22;708;51.442;7.016;2024-02-21T03:32:37;10.80;99.90
1429;DHT22;708;51.442;7.016;2024-02-21T03:35:05;10.70;99.90
1429;DHT22;708;51.442;7.016;2024-02-21T03:37:32;10.80;99.90
1429;DHT22;708;51.442;7.016;2024-02-21T03:39:58;10.80;99.90
1429;DHT22;708;51.442;7.016;2024-02-21T03:42:25;10.90;99.90
1429;DHT22;708;51.442;7.016;2024-02-21T03:44:55;10.80;99.90
1429;DHT22;708;51.442;7.016;2024-02-21T03:47:21;10.70;99.90
1429;DHT22;708;51.442;7.016;2024-02-21T03:49:49;10.70;99.90
1429;DHT22;708;51.442;7.016;2024-02-21T03:52:16;10.60;99.90
1429;DHT22;708;51.442;7.016;2024-02-21T03:54:43;10.60;99.90
1429;DHT22;708;51.442;7.016;2024-02-21T03:57:10;10.50;99.90
1429;DHT22;708;51.442;7.016;2024-02-21T03:59:37;10.70;99.90
1429;DHT22;708;51.442;7.016;2024-02-21T04:02:05;10.60;99.90
1429;DHT22;708;51.442;7.016;2024-02-21T04:04:34;10.80;99.90
1429;DHT22;708;51.442;7.016;2024-02-21T04:07:04;10.80;99.90
1429;DHT22;708;51.442;7.016;2024-02-21T04:09:32;10.80;99.90
1429;DHT22;708;51.442;7.016;2024-02-21T04:12:00;10.80;99.90
1429;DHT22;708;51.442;7.016;2024-02-21T04:14:27;10.80;99.90
1429;DHT22;708;51.442;7.016;2024-02-21T04:16:54;10.90;99.90
1429;DHT22;708;51.442;7.016;2024-02-21T04:19:20;10.90;99.90
1429;DHT22;708;51.442;7.016;2024-02-21T04:21:47;10.90;99.90
1429;DHT22;708;51.442;7.016;2024-02-21T04:24:15;11.00;99.90
1429;DHT22;708;51.442;7.016;2024-02-21T04:26:42;11.00;99.90
1429;DHT22;708;51.442;7.016;2024-02-21T04:29:09;11.00;99.90
1429;DHT22;708;51.442;7.016;2024-02-21T04:31:36;10.80;99.90
1429;DHT22;708;51.442;7.016;2024-02-21T04:34:02;11.00;99.90
1429;DHT22;708;51.442;7.016;2024-02-21T04:36:29;11.00;99.90
1429;DHT22;708;51.442;7.016;2024-02-21T04:38:56;11.00;99.90
1429;DHT22;708;51.442;7.016;2024-02-21T04:41:24;11.00;99.90
1429;DHT22;708;51.442;7.016;2024-02-21T04:43:51;11.00;99.90
1429;DHT22;708;51.442;7.016;2024-02-21T04:46:18;11.00;99.90
1429;DHT22;708;51.442;7.016;2024-02-21T04:48:45;11.00;99.90
1429;DHT22;708;51.442;7.016;2024-02-21T04:51:12;11.00;99.90
1429;DHT22;708;51.442;7.016;2024-02-21T04:53:39;11.00;99.90
1429;DHT22;708;51.442;7.016;2024-02-21T04:56:06;11.00;99.90
1429;DHT22;708;51.442;7.016;2024-02-21T04:58:37;11.10;99.90
1429;DHT22;708;51.442;7.016;2024-02-21T05:01:04;11.00;99.90
1429;DHT22;708;51.442;7.016;2024-02-21T05:03:31;11.00;99.90
1429;DHT22;708;51.442;7.016;2024-02-21T05:05:59;11.10;99.90
1429;DHT22;708;51.442;7.016;2024-02-21T05:08:26;11.00;99.90
1429;DHT22;708;51.442;7.016;2024-02-21T05:10:53;11.10;99.90
1429;DHT22;708;51.442;7.016;2024-02-21T05:13:20;11.00;99.90
1429;DHT22;708;51.442;7.016;2024-02-21T05:15:48;11.10;99.90
1429;DHT22;708;51.442;7.016;2024-02-21T05:18:15;11.10;99.90
1429;DHT22;708;51.442;7.016;2024-02-21T05:20:41;11.10;99.90
1429;DHT22;708;51.442;7.016;2024-02-21T05:23:08;11.00;99.90
1429;DHT22;708;51.442;7.016;2024-02-21T05:25:35;11.00;99.90
1429;DHT22;708;51.442;7.016;2024-02-21T05:28:02;11.10;99.90
1429;DHT22;708;51.442;7.016;2024-02-21T05:30:31;11.10;99.90
1429;DHT22;708;51.442;7.016;2024-02-21T05:33:03;11.10;99.90
1429;DHT22;708;51.442;7.016;2024-02-21T05:35:30;11.20;99.90
1429;DHT22;708;51.442;7.016;2024-02-21T05:37:56;11.10;99.90
1429;DHT22;708;51.442;7.016;2024-02-21T05:40:24;11.10;99.90
1429;DHT22;708;51.442;7.016;2024-02-21T05:42:51;11.10;99.90
1429;DHT22;708;51.442;7.016;2024-02-21T05:45:18;11.10;99.90
1429;DHT22;708;51.442;7.016;2024-02-21T05:47:45;11.10;99.90
1429;DHT22;708;51.442;7.016;2024-02-21T05:50:14;11.10;99.90
1429;DHT22;708;51.442;7.016;2024-02-21T05:52:40;10.80;99.90
1429;DHT22;708;51.442;7.016;2024-02-21T05:55:07;10.90;99.90
1429;DHT22;708;51.442;7.016;2024-02-21T05:57:35;11.20;99.90
1429;DHT22;708;51.442;7.016;2024-02-21T06:00:04;10.90;99.90
1429;DHT22;708;51.442;7.016;2024-02-21T06:02:31;11.00;99.90
1429;DHT22;708;51.442;7.016;2024-02-21T06:04:58;11.00;99.90
1429;DHT22;708;51.442;7.016;2024-02-21T06:07:27;11.10;99.90
1429;DHT22;708;51.442;7.016;2024-02-21T06:09:54;11.10;99.90
1429;DHT22;708;51.442;7.016;2024-02-21T06:12:20;11.00;99.90
1429;DHT22;708;51.442;7.016;2024-02-21T06:14:47;11.00;99.90
1429;DHT22;708;51.442;7.016;2024-02-21T06:17:14;11.20;99.90
1429;DHT22;708;51.442;7.016;2024-02-21T06:19:42;11.10;99.90
1429;DHT22;708;51.442;7.016;2024-02-21T06:22:09;11.20;99.90
1429;DHT22;708;51.442;7.016;2024-02-21T06:24:37;11.20;99.90
1429;DHT22;708;51.442;7.016;2024-02-21T06:27:07;11.20;99.90
1429;DHT22;708;51.442;7.016;2024-02-21T06:29:34;11.20;99.90
1429;DHT22;708;51.442;7.016;2024-02-21T06:32:01;11.20;99.90
1429;DHT22;708;51.442;7.016;2024-02-21T06:34:28;11.20;99.90
1429;DHT22;708;51.442;7.016;2024-02-21T06:36:56;11.20;99.90
1429;DHT22;708;51.442;7.016;2024-02-21T06:39:23;11.20;99.90
1429;DHT22;708;51.442;7.016;2024-02-21T06:41:51;11.20;99.90
1429;DHT22;708;51.442;7.016;2024-02-21T06:44:19;11.20;99.90
1429;DHT22;708;51.442;7.016;2024-02-21T06:46:46;11.10;99.90
1429;DHT22;708;51.442;7.016;2024-02-21T06:49:13;11.10;99.90
1429;DHT22;708;51.442;7.016;2024-02-21T06:51:41;11.20;99.90
1429;DHT22;708;51.442;7.016;2024-02-21T06:54:08;11.20;99.90
1429;DHT22;708;51.442;7.016;2024-02-21T06:56:35;11.20;99.90
1429;DHT22;708;51.442;7.016;2024-02-21T06:59:07;11.20;99.90
1429;DHT22;708;51.442;7.016;2024-02-21T07:01:37;11.20;99.90
1429;DHT22;708;51.442;7.016;2024-02-21T07:04:06;11.20;99.90
1429;DHT22;708;51.442;7.016;2024-02-21T07:06:33;11.30;99.90
1429;DHT22;708;51.442;7.016;2024-02-21T07:09:00;11.30;99.90
1429;DHT22;708;51.442;7.016;2024-02-21T07:11:26;11.40;99.90
1429;DHT22;708;51.442;7.016;2024-02-21T07:13:53;11.50;99.90
1429;DHT22;708;51.442;7.016;2024-02-21T07:16:21;11.40;99.90
1429;DHT22;708;51.442;7.016;2024-02-21T07:18:48;11.40;99.90
1429;DHT22;708;51.442;7.016;2024-02-21T07:21:15;11.50;99.90
1429;DHT22;708;51.442;7.016;2024-02-21T07:23:42;11.60;99.90
1429;DHT22;708;51.442;7.016;2024-02-21T07:26:09;11.50;99.90
1429;DHT22;708;51.442;7.016;2024-02-21T07:28:36;11.60;99.90
1429;DHT22;708;51.442;7.016;2024-02-21T07:31:03;11.70;99.90
1429;DHT22;708;51.442;7.016;2024-02-21T07:33:31;11.60;99.90
1429;DHT22;708;51.442;7.016;2024-02-21T07:35:58;11.70;99.90
1429;DHT22;708;51.442;7.016;2024-02-21T07:38:25;11.70;99.90
1429;DHT22;708;51.442;7.016;2024-02-21T07:40:51;11.70;99.90
1429;DHT22;708;51.442;7.016;2024-02-21T07:43:18;11.80;99.90
1429;DHT22;708;51.442;7.016;2024-02-21T07:45:47;11.80;99.90
1429;DHT22;708;51.442;7.016;2024-02-21T07:48:14;11.80;99.90
1429;DHT22;708;51.442;7.016;2024-02-21T07:50:42;11.80;99.90
1429;DHT22;708;51.442;7.016;2024-02-21T07:53:09;11.80;99.90
1429;DHT22;708;51.442;7.016;2024-02-21T07:55:36;11.90;99.90
1429;DHT22;708;51.442;7.016;2024-02-21T07:58:03;11.90;99.90
1429;DHT22;708;51.442;7.016;2024-02-21T08:00:29;11.90;99.90
1429;DHT22;708;51.442;7.016;2024-02-21T08:02:56;11.90;99.90
1429;DHT22;708;51.442;7.016;2024-02-21T08:05:23;12.00;99.90
1429;DHT22;708;51.442;7.016;2024-02-21T08:07:51;12.00;99.90
1429;DHT22;708;51.442;7.016;2024-02-21T08:10:18;12.10;99.90
1429;DHT22;708;51.442;7.016;2024-02-21T08:12:45;12.10;99.90
1429;DHT22;708;51.442;7.016;2024-02-21T08:15:11;12.20;99.90
1429;DHT22;708;51.442;7.016;2024-02-21T08:17:38;12.20;99.90
1429;DHT22;708;51.442;7.016;2024-02-21T08:20:05;12.20;99.90
1429;DHT22;708;51.442;7.016;2024-02-21T08:22:32;12.20;99.90
1429;DHT22;708;51.442;7.016;2024-02-21T08:25:00;12.30;99.90
1429;DHT22;708;51.442;7.016;2024-02-21T08:27:31;12.40;99.90
1429;DHT22;708;51.442;7.016;2024-02-21T08:29:57;12.40;99.90
1429;DHT22;708;51.442;7.016;2024-02-21T08:32:24;12.50;99.90
1429;DHT22;708;51.442;7.016;2024-02-21T08:34:51;12.40;99.90
1429;DHT22;708;51.442;7.016;2024-02-21T08:37:17;12.50;99.90
1429;DHT22;708;51.442;7.016;2024-02-21T08:39:44;12.30;99.90
1429;DHT22;708;51.442;7.016;2024-02-21T08:42:12;12.30;99.90
1429;DHT22;708;51.442;7.016;2024-02-21T08:44:40;12.50;99.90
1429;DHT22;708;51.442;7.016;2024-02-21T08:47:08;12.60;99.90
1429;DHT22;708;51.442;7.016;2024-02-21T08:49:35;12.60;99.90
1429;DHT22;708;51.442;7.016;2024-02-21T08:52:03;12.50;99.90
1429;DHT22;708;51.442;7.016;2024-02-21T08:54:30;12.40;99.90
1429;DHT22;708;51.442;7.016;2024-02-21T08:56:58;12.30;99.90
1429;DHT22;708;51.442;7.016;2024-02-21T08:59:26;12.30;99.90
1429;DHT22;708;51.442;7.016;2024-02-21T09:01:53;12.40;99.90
1429;DHT22;708;51.442;7.016;2024-02-21T09:04:20;12.40;99.90
1429;DHT22;708;51.442;7.016;2024-02-21T09:06:46;12.40;99.90
1429;DHT22;708;51.442;7.016;2024-02-21T09:09:13;12.30;99.90
1429;DHT22;708;51.442;7.016;2024-02-21T09:11:40;12.40;99.90
1429;DHT22;708;51.442;7.016;2024-02-21T09:14:07;12.40;99.90
1429;DHT22;708;51.442;7.016;2024-02-21T09:16:35;12.30;99.90
1429;DHT22;708;51.442;7.016;2024-02-21T09:19:02;12.30;99.90
1429;DHT22;708;51.442;7.016;2024-02-21T09:21:28;12.20;99.90
1429;DHT22;708;51.442;7.016;2024-02-21T09:23:55;12.20;99.90
1429;DHT22;708;51.442;7.016;2024-02-21T09:26:22;12.30;99.90
1429;DHT22;708;51.442;7.016;2024-02-21T09:28:49;12.30;99.90
1429;DHT22;708;51.442;7.016;2024-02-21T09:31:16;12.70;99.90
1429;DHT22;708;51.442;7.016;2024-02-21T09:33:45;12.70;99.90
1429;DHT22;708;51.442;7.016;2024-02-21T09:36:11;12.60;99.90
1429;DHT22;708;51.442;7.016;2024-02-21T09:38:39;12.60;99.90
1429;DHT22;708;51.442;7.016;2024-02-21T09:41:14;12.70;99.90
1429;DHT22;708;51.442;7.016;2024-02-21T09:43:42;12.70;99.90
1429;DHT22;708;51.442;7.016;2024-02-21T09:46:15;12.80;99.90
1429;DHT22;708;51.442;7.016;2024-02-21T09:48:54;12.80;99.90
1429;DHT22;708;51.442;7.016;2024-02-21T09:51:27;12.70;99.90
1429;DHT22;708;51.442;7.016;2024-02-21T09:53:56;12.70;99.90
1429;DHT22;708;51.442;7.016;2024-02-21T09:56:24;12.80;99.90
1429;DHT22;708;51.442;7.016;2024-02-21T09:58:50;12.80;99.90
1429;DHT22;708;51.442;7.016;2024-02-21T10:01:17;12.90;99.90
1429;DHT22;708;51.442;7.016;2024-02-21T10:03:45;13.00;99.90
1429;DHT22;708;51.442;7.016;2024-02-21T10:06:12;13.00;99.90
1429;DHT22;708;51.442;7.016;2024-02-21T10:08:39;13.10;99.90
1429;DHT22;708;51.442;7.016;2024-02-21T10:11:05;13.00;99.90
1429;DHT22;708;51.442;7.016;2024-02-21T10:13:35;12.60;99.90
1429;DHT22;708;51.442;7.016;2024-02-21T10:16:04;12.80;99.90
1429;DHT22;708;51.442;7.016;2024-02-21T10:18:31;12.90;99.90
1429;DHT22;708;51.442;7.016;2024-02-21T10:21:04;13.00;99.90
1429;DHT22;708;51.442;7.016;2024-02-21T10:23:44;13.10;99.90
1429;DHT22;708;51.442;7.016;2024-02-21T10:26:11;13.20;99.90
1429;DHT22;708;51.442;7.016;2024-02-21T10:28:38;13.30;99.90
1429;DHT22;708;51.442;7.016;2024-02-21T10:31:08;13.30;99.90
1429;DHT22;708;51.442;7.016;2024-02-21T10:33:37;13.10;99.90
1429;DHT22;708;51.442;7.016;2024-02-21T10:36:10;13.30;99.90
1429;DHT22;708;51.442;7.016;2024-02-21T10:38:37;13.20;99.90
1429;DHT22;708;51.442;7.016;2024-02-21T10:41:05;13.10;99.90
1429;DHT22;708;51.442;7.016;2024-02-21T10:43:38;13.00;99.90
1429;DHT22;708;51.442;7.016;2024-02-21T10:46:06;12.90;99.90
1429;DHT22;708;51.442;7.016;2024-02-21T10:48:41;13.20;99.90
1429;DHT22;708;51.442;7.016;2024-02-21T10:51:15;13.20;99.90
1429;DHT22;708;51.442;7.016;2024-02-21T10:53:45;13.30;99.90
1429;DHT22;708;51.442;7.016;2024-02-21T10:56:21;13.20;99.90
1429;DHT22;708;51.442;7.016;2024-02-21T10:58:49;13.20;99.90
1429;DHT22;708;51.442;7.016;2024-02-21T11:01:17;13.20;99.90
1429;DHT22;708;51.442;7.016;2024-02-21T11:03:45;13.30;99.90
1429;DHT22;708;51.442;7.016;2024-02-21T11:06:15;13.50;99.90
1429;DHT22;708;51.442;7.016;2024-02-21T11:08:42;13.70;99.90
1429;DHT22;708;51.442;7.016;2024-02-21T11:11:12;13.80;99.90
1429;DHT22;708;51.442;7.016;2024-02-21T11:13:43;13.80;99.90
1429;DHT22;708;51.442;7.016;2024-02-21T11:16:20;13.90;99.90
1429;DHT22;708;51.442;7.016;2024-02-21T11:18:48;13.80;99.90
1429;DHT22;708;51.442;7.016;2024-02-21T11:21:17;14.00;99.90
1429;DHT22;708;51.442;7.016;2024-02-21T11:23:43;14.00;99.90
1429;DHT22;708;51.442;7.016;2024-02-21T11:26:21;14.00;99.90
1429;DHT22;708;51.442;7.016;2024-02-21T11:28:56;13.90;99.90
1429;DHT22;708;51.442;7.016;2024-02-21T11:31:23;14.00;99.90
1429;DHT22;708;51.442;7.016;2024-02-21T11:33:53;14.00;99.90
1429;DHT22;708;51.442;7.016;2024-02-21T11:36:25;14.10;99.90
1429;DHT22;708;51.442;7.016;2024-02-21T11:38:52;14.10;99.90
1429;DHT22;708;51.442;7.016;2024-02-21T11:41:19;14.10;99.90
1429;DHT22;708;51.442;7.016;2024-02-21T11:43:48;14.40;99.90
1429;DHT22;708;51.442;7.016;2024-02-21T11:46:14;14.50;99.90
1429;DHT22;708;51.442;7.016;2024-02-21T11:48:42;14.40;99.90
1429;DHT22;708;51.442;7.016;2024-02-21T11:51:10;14.30;99.90
1429;DHT22;708;51.442;7.016;2024-02-21T11:53:38;14.30;99.90
1429;DHT22;708;51.442;7.016;2024-02-21T11:56:06;14.10;99.90
1429;DHT22;708;51.442;7.016;2024-02-21T11:58:35;14.40;99.90
1429;DHT22;708;51.442;7.016;2024-02-21T12:01:03;14.50;99.90
1429;DHT22;708;51.442;7.016;2024-02-21T12:03:32;14.50;99.90
1429;DHT22;708;51.442;7.016;2024-02-21T12:06:01;14.60;99.90
1429;DHT22;708;51.442;7.016;2024-02-21T12:08:41;14.70;99.90
1429;DHT22;708;51.442;7.016;2024-02-21T12:11:19;14.60;99.90
1429;DHT22;708;51.442;7.016;2024-02-21T12:13:46;14.70;99.90
1429;DHT22;708;51.442;7.016;2024-02-21T12:16:15;14.60;99.90
1429;DHT22;708;51.442;7.016;2024-02-21T12:18:43;14.70;99.90
1429;DHT22;708;51.442;7.016;2024-02-21T12:21:13;14.70;99.90
1429;DHT22;708;51.442;7.016;2024-02-21T12:23:43;15.30;99.90
1429;DHT22;708;51.442;7.016;2024-02-21T12:26:12;14.80;99.90
1429;DHT22;708;51.442;7.016;2024-02-21T12:28:39;15.00;99.90
1429;DHT22;708;51.442;7.016;2024-02-21T12:31:06;15.00;99.90
1429;DHT22;708;51.442;7.016;2024-02-21T12:33:32;14.90;99.90
1429;DHT22;708;51.442;7.016;2024-02-21T12:36:00;15.00;99.90
1429;DHT22;708;51.442;7.016;2024-02-21T12:38:29;15.00;99.90
1429;DHT22;708;51.442;7.016;2024-02-21T12:40:57;15.00;99.90
1429;DHT22;708;51.442;7.016;2024-02-21T12:43:26;15.00;99.90
1429;DHT22;708;51.442;7.016;2024-02-21T12:45:52;15.00;99.90
1429;DHT22;708;51.442;7.016;2024-02-21T12:48:19;15.00;99.90
1429;DHT22;708;51.442;7.016;2024-02-21T12:50:49;14.90;99.90
1429;DHT22;708;51.442;7.016;2024-02-21T12:53:17;14.90;99.90
1429;DHT22;708;51.442;7.016;2024-02-21T12:55:44;14.80;99.90
1429;DHT22;708;51.442;7.016;2024-02-21T12:58:12;14.70;99.90
1429;DHT22;708;51.442;7.016;2024-02-21T13:00:39;14.70;99.90
1429;DHT22;708;51.442;7.016;2024-02-21T13:03:06;14.90;99.90
1429;DHT22;708;51.442;7.016;2024-02-21T13:05:35;15.10;99.90
1429;DHT22;708;51.442;7.016;2024-02-21T13:08:02;15.20;99.90
1429;DHT22;708;51.442;7.016;2024-02-21T13:10:29;15.30;99.90
1429;DHT22;708;51.442;7.016;2024-02-21T13:12:55;15.30;99.90
1429;DHT22;708;51.442;7.016;2024-02-21T13:15:23;15.20;99.90
1429;DHT22;708;51.442;7.016;2024-02-21T13:17:50;15.20;99.90
1429;DHT22;708;51.442;7.016;2024-02-21T13:20:17;15.20;99.90
1429;DHT22;708;51.442;7.016;2024-02-21T13:22:46;15.20;99.90
1429;DHT22;708;51.442;7.016;2024-02-21T13:25:13;15.20;99.90
1429;DHT22;708;51.442;7.016;2024-02-21T13:27:43;15.10;99.90
1429;DHT22;708;51.442;7.016;2024-02-21T13:30:11;15.10;99.90
1429;DHT22;708;51.442;7.016;2024-02-21T13:32:43;14.90;99.90
1429;DHT22;708;51.442;7.016;2024-02-21T13:35:11;14.90;99.90
1429;DHT22;708;51.442;7.016;2024-02-21T13:37:38;15.00;99.90
1429;DHT22;708;51.442;7.016;2024-02-21T13:40:06;15.10;99.90
1429;DHT22;708;51.442;7.016;2024-02-21T13:42:34;15.20;99.90
1429;DHT22;708;51.442;7.016;2024-02-21T13:45:01;15.00;99.90
1429;DHT22;708;51.442;7.016;2024-02-21T13:47:46;15.10;99.90
1429;DHT22;708;51.442;7.016;2024-02-21T13:50:13;15.10;99.90
1429;DHT22;708;51.442;7.016;2024-02-21T13:52:41;15.20;99.90
1429;DHT22;708;51.442;7.016;2024-02-21T13:55:08;15.20;99.90
1429;DHT22;708;51.442;7.016;2024-02-21T13:57:35;15.20;99.90
1429;DHT22;708;51.442;7.016;2024-02-21T14:00:02;15.10;99.90
1429;DHT22;708;51.442;7.016;2024-02-21T14:02:30;15.10;99.90
1429;DHT22;708;51.442;7.016;2024-02-21T14:05:01;15.10;99.90
1429;DHT22;708;51.442;7.016;2024-02-21T14:07:31;15.00;99.90
1429;DHT22;708;51.442;7.016;2024-02-21T14:09:58;14.80;99.90
1429;DHT22;708;51.442;7.016;2024-02-21T14:12:28;14.80;99.90
1429;DHT22;708;51.442;7.016;2024-02-21T14:14:54;14.80;99.90
1429;DHT22;708;51.442;7.016;2024-02-21T14:17:23;14.80;99.90
1429;DHT22;708;51.442;7.016;2024-02-21T14:19:51;14.80;99.90
1429;DHT22;708;51.442;7.016;2024-02-21T14:22:19;14.90;99.90
1429;DHT22;708;51.442;7.016;2024-02-21T14:24:46;14.90;99.90
1429;DHT22;708;51.442;7.016;2024-02-21T14:27:12;14.90;99.90
1429;DHT22;708;51.442;7.016;2024-02-21T14:29:39;14.80;99.90
1429;DHT22;708;51.442;7.016;2024-02-21T14:32:06;14.80;99.90
1429;DHT22;708;51.442;7.016;2024-02-21T14:34:35;14.80;99.90
1429;DHT22;708;51.442;7.016;2024-02-21T14:37:02;14.60;99.90
1429;DHT22;708;51.442;7.016;2024-02-21T14:39:31;14.60;99.90
1429;DHT22;708;51.442;7.016;2024-02-21T14:41:59;14.70;99.90
1429;DHT22;708;51.442;7.016;2024-02-21T14:44:26;14.70;99.90
1429;DHT22;708;51.442;7.016;2024-02-21T14:46:53;14.80;99.90
1429;DHT22;708;51.442;7.016;2024-02-21T14:49:20;14.70;99.90
1429;DHT22;708;51.442;7.016;2024-02-21T14:51:47;14.70;99.90
1429;DHT22;708;51.442;7.016;2024-02-21T14:54:14;14.60;99.90
1429;DHT22;708;51.442;7.016;2024-02-21T14:56:42;14.60;99.90
1429;DHT22;708;51.442;7.016;2024-02-21T14:59:09;14.60;99.90
1429;DHT22;708;51.442;7.016;2024-02-21T15:01:36;14.50;99.90
1429;DHT22;708;51.442;7.016;2024-02-21T15:04:04;14.50;99.90
1429;DHT22;708;51.442;7.016;2024-02-21T15:06:31;14.40;99.90
1429;DHT22;708;51.442;7.016;2024-02-21T15:08:58;14.30;99.90
1429;DHT22;708;51.442;7.016;2024-02-21T15:11:25;14.20;99.90
1429;DHT22;708;51.442;7.016;2024-02-21T15:13:53;14.10;99.90
1429;DHT22;708;51.442;7.016;2024-02-21T15:16:19;14.10;99.90
1429;DHT22;708;51.442;7.016;2024-02-21T15:18:46;14.10;99.90
1429;DHT22;708;51.442;7.016;2024-02-21T15:21:13;14.10;99.90
1429;DHT22;708;51.442;7.016;2024-02-21T15:23:40;14.00;99.90
1429;DHT22;708;51.442;7.016;2024-02-21T15:26:07;13.90;99.90
1429;DHT22;708;51.442;7.016;2024-02-21T15:28:34;13.90;99.90
1429;DHT22;708;51.442;7.016;2024-02-21T15:31:02;13.90;99.90
1429;DHT22;708;51.442;7.016;2024-02-21T15:33:30;13.60;99.90
1429;DHT22;708;51.442;7.016;2024-02-21T15:35:57;13.90;99.90
1429;DHT22;708;51.442;7.016;2024-02-21T15:38:23;13.90;99.90
1429;DHT22;708;51.442;7.016;2024-02-21T15:40:50;13.50;99.90
1429;DHT22;708;51.442;7.016;2024-02-21T15:43:17;13.50;99.90
1429;DHT22;708;51.442;7.016;2024-02-21T15:45:44;13.70;99.90
1429;DHT22;708;51.442;7.016;2024-02-21T15:48:12;13.90;99.90
1429;DHT22;708;51.442;7.016;2024-02-21T15:50:39;13.60;99.90
1429;DHT22;708;51.442;7.016;2024-02-21T15:53:06;13.50;99.90
1429;DHT22;708;51.442;7.016;2024-02-21T15:55:33;13.50;99.90
1429;DHT22;708;51.442;7.016;2024-02-21T15:58:00;13.50;99.90
1429;DHT22;708;51.442;7.016;2024-02-21T16:00:29;13.40;99.90
1429;DHT22;708;51.442;7.016;2024-02-21T16:02:58;13.40;99.90
1429;DHT22;708;51.442;7.016;2024-02-21T16:05:26;13.50;99.90
1429;DHT22;708;51.442;7.016;2024-02-21T16:07:53;13.40;99.90
1429;DHT22;708;51.442;7.016;2024-02-21T16:10:20;13.40;99.90
1429;DHT22;708;51.442;7.016;2024-02-21T16:12:46;13.20;99.90
1429;DHT22;708;51.442;7.016;2024-02-21T16:15:16;13.20;99.90
1429;DHT22;708;51.442;7.016;2024-02-21T16:17:44;13.10;99.90
1429;DHT22;708;51.442;7.016;2024-02-21T16:20:12;13.10;99.90